Time;durP1;ratioP1;P1;durP2;ratioP2;P2;SDS_P1;SDS_P2;PMS_P1;PMS_P2;Temp;Humidity;BMP_temperature;BMP_pressure;BME280_temperature;BME280_humidity;BME280_pressure;Samples;Min_cycle;Max_cycle;Signal;HPM_P1;HPM_P2
2022/04/04 00:01:32;;;;;;;;;;;;;;;24.06;64.65;97201.38;571555;248;65433;-70
2022/04/04 00:04:00;;;;;;;;;;;;;;;24.04;62.00;97208.94;571552;246;66166;-70
2022/04/04 00:06:30;;;;;;;;;;;;;;;24.05;63.78;97207.84;571589;248;66493;-70
2022/04/04 00:08:56;;;;;;;;;;;;;;;24.02;62.71;97211.89;571537;248;63063;-70
2022/04/04 00:11:24;;;;;;;;;;;;;;;24.03;62.42;97213.48;571560;248;66735;-70
2022/04/04 00:13:51;;;;;;;;;;;;;;;24.02;62.63;97214.58;571519;248;66566;-70
2022/04/04 00:16:19;;;;;;;;;;;;;;;24.03;62.62;97215.38;571559;246;65419;-70
2022/04/04 00:18:46;;;;;;;;;;;;;;;24.01;64.32;97212.98;571601;248;68741;-70
2022/04/04 00:21:15;;;;;;;;;;;;;;;24.03;62.42;97228.80;571511;248;69110;-70
2022/04/04 00:23:43;;;;;;;;;;;;;;;24.02;61.97;97232.58;571536;248;62639;-73
2022/04/04 00:26:11;;;;;;;;;;;;;;;24.01;63.29;97230.95;571563;248;69200;-74
2022/04/04 00:28:38;;;;;;;;;;;;;;;24.00;63.83;97232.84;571527;248;69449;-74
2022/04/04 00:31:06;;;;;;;;;;;;;;;23.99;62.49;97231.26;571591;248;63090;-74
2022/04/04 00:33:33;;;;;;;;;;;;;;;23.99;62.88;97233.15;571533;248;66514;-74
2022/04/04 00:36:02;;;;;;;;;;;;;;;23.99;63.00;97236.63;571586;248;66660;-74
2022/04/04 00:38:29;;;;;;;;;;;;;;;23.98;62.54;97240.41;571555;248;65388;-73
2022/04/04 00:40:56;;;;;;;;;;;;;;;23.98;62.48;97237.72;571550;248;68750;-73
2022/04/04 00:43:25;;;;;;;;;;;;;;;23.98;64.12;97235.04;571605;248;68571;-73
2022/04/04 00:45:53;;;;;;;;;;;;;;;23.98;63.65;97236.90;571618;248;65377;-73
2022/04/04 00:48:20;;;;;;;;;;;;;;;23.97;62.89;97235.31;571587;248;68694;-73
2022/04/04 00:50:48;;;;;;;;;;;;;;;23.97;64.64;97228.05;571570;248;68135;-73
2022/04/04 00:53:15;;;;;;;;;;;;;;;23.96;65.30;97218.41;571578;248;63019;-74
2022/04/04 00:55:43;;;;;;;;;;;;;;;23.94;62.75;97212.52;571579;248;66538;-73
2022/04/04 00:58:12;;;;;;;;;;;;;;;23.95;64.44;97222.16;571568;246;66848;-74
2022/04/04 01:00:41;;;;;;;;;;;;;;;23.93;62.52;97219.78;571583;248;63006;-74
2022/04/04 01:03:08;;;;;;;;;;;;;;;23.93;62.02;97216.30;571596;248;68732;-74
2022/04/04 01:05:36;;;;;;;;;;;;;;;23.93;63.37;97216.30;571558;245;68581;-70
2022/04/04 01:08:03;;;;;;;;;;;;;;;23.93;62.74;97221.67;571545;248;65396;-70
2022/04/04 01:10:31;;;;;;;;;;;;;;;23.93;63.86;97210.94;571610;248;68600;-70
2022/04/04 01:13:00;;;;;;;;;;;;;;;23.93;63.63;97218.98;571530;248;44977;-70
2022/04/04 01:15:32;;;;;;;;;;;;;;;23.93;64.36;97224.35;571600;246;63078;-73
2022/04/04 01:17:57;;;;;;;;;;;;;;;23.93;64.00;97227.03;571420;248;66212;-74
2022/04/04 01:20:24;;;;;;;;;;;;;;;23.92;64.83;97230.78;571533;246;66508;-74
2022/04/04 01:22:52;;;;;;;;;;;;;;;23.92;63.76;97228.10;571598;246;63122;-70
2022/04/04 01:25:23;;;;;;;;;;;;;;;23.91;63.32;97229.20;571552;248;69087;-70
2022/04/04 01:27:50;;;;;;;;;;;;;;;;;;571585;246;68671;-70
2022/04/04 01:30:18;;;;;;;;;;;;;;;23.90;66.03;97219.55;571609;248;65934;-73
2022/04/04 01:32:46;;;;;;;;;;;;;;;23.90;64.08;97222.24;571562;248;69639;-73
2022/04/04 01:35:14;;;;;;;;;;;;;;;23.89;64.61;97223.30;571542;248;69065;-73
2022/04/04 01:37:42;;;;;;;;;;;;;;;23.90;64.98;97227.61;571618;246;65288;-73
2022/04/04 01:40:10;;;;;;;;;;;;;;;23.88;64.01;97227.09;571622;248;66225;-73
2022/04/04 01:42:39;;;;;;;;;;;;;;;23.88;65.29;97227.09;571592;248;68859;-73
2022/04/04 01:45:11;;;;;;;;;;;;;;;23.87;64.26;97225.47;571577;248;65392;-73
2022/04/04 01:47:40;;;;;;;;;;;;;;;23.86;64.96;97226.56;571532;248;68441;-74
2022/04/04 01:50:08;;;;;;;;;;;;;;;23.87;64.74;97228.16;571658;248;66245;-74
2022/04/04 01:52:36;;;;;;;;;;;;;;;23.85;64.36;97224.97;571593;248;65597;-74
2022/04/04 01:55:03;;;;;;;;;;;;;;;23.86;65.15;97221.99;571576;248;66260;-74
2022/04/04 01:57:33;;;;;;;;;;;;;;;23.84;64.45;97224.15;571572;248;66277;-74
2022/04/04 02:00:01;;;;;;;;;;;;;;;23.84;65.46;97220.67;571569;246;62864;-74
2022/04/04 02:02:29;;;;;;;;;;;;;;;23.84;63.79;97223.36;571634;248;68922;-74
2022/04/04 02:04:56;;;;;;;;;;;;;;;23.84;65.79;97220.67;571581;248;68309;-74
2022/04/04 02:07:24;;;;;;;;;;;;;;;23.83;64.97;97227.93;571546;248;65497;-74
2022/04/04 02:09:53;;;;;;;;;;;;;;;23.84;65.72;97228.72;571570;248;66495;-74
2022/04/04 02:12:21;;;;;;;;;;;;;;;23.82;66.11;97220.97;571545;248;68964;-74
2022/04/04 02:14:48;;;;;;;;;;;;;;;23.82;65.95;97220.18;571551;248;65488;-74
2022/04/04 02:17:15;;;;;;;;;;;;;;;23.81;65.96;97215.88;571615;248;68764;-74
2022/04/04 02:19:43;;;;;;;;;;;;;;;23.80;66.47;97208.92;571562;248;68443;-74
2022/04/04 02:22:11;;;;;;;;;;;;;;;23.80;65.83;97206.23;571609;248;65472;-74
2022/04/04 02:24:39;;;;;;;;;;;;;;;23.79;66.31;97200.08;571590;248;66474;-74
2022/04/04 02:27:06;;;;;;;;;;;;;;;23.79;65.53;97209.98;571568;248;68578;-74
2022/04/04 02:29:34;;;;;;;;;;;;;;;23.79;65.87;97215.36;571638;248;65333;-74
2022/04/04 02:32:02;;;;;;;;;;;;;;;23.78;64.65;97219.13;571616;248;66223;-74
2022/04/04 02:34:30;;;;;;;;;;;;;;;23.77;66.04;97215.66;571592;248;68498;-74
2022/04/04 02:36:58;;;;;;;;;;;;;;;23.76;64.31;97205.19;571580;248;65455;-74
2022/04/04 02:39:25;;;;;;;;;;;;;;;23.77;65.13;97209.49;571590;248;66732;-74
2022/04/04 02:41:55;;;;;;;;;;;;;;;23.77;67.06;97206.81;571603;246;66454;-74
2022/04/04 02:44:22;;;;;;;;;;;;;;;23.73;65.70;97203.87;571583;248;62635;-74
2022/04/04 02:46:50;;;;;;;;;;;;;;;23.73;66.88;97195.03;571602;248;68820;-74
2022/04/04 02:49:17;;;;;;;;;;;;;;;23.75;64.92;97211.66;571561;248;68608;-74
2022/04/04 02:51:45;;;;;;;;;;;;;;;23.74;64.48;97218.11;571599;248;63046;-74
2022/04/04 02:54:12;;;;;;;;;;;;;;;23.74;64.99;97218.11;571580;248;66488;-74
2022/04/04 02:56:41;;;;;;;;;;;;;;;23.74;66.97;97229.64;571628;248;66369;-74
2022/04/04 02:59:10;;;;;;;;;;;;;;;23.70;66.08;97218.63;571587;248;65392;-74
2022/04/04 03:01:37;;;;;;;;;;;;;;;23.72;65.58;97222.95;571546;248;68739;-74
2022/04/04 03:04:04;;;;;;;;;;;;;;;23.73;65.38;97224.55;571593;248;68595;-74
2022/04/04 03:06:36;;;;;;;;;;;;;;;23.72;65.65;97228.33;571617;248;45503;-74
2022/04/04 03:09:03;;;;;;;;;;;;;;;23.72;67.15;97222.95;571602;245;68739;-74
2022/04/04 03:11:31;;;;;;;;;;;;;;;23.69;65.79;97227.77;571558;248;68535;-74
2022/04/04 03:13:58;;;;;;;;;;;;;;;23.69;65.85;97224.29;571609;248;65406;-74
2022/04/04 03:16:25;;;;;;;;;;;;;;;23.70;65.62;97228.56;571577;248;68723;-74
2022/04/04 03:18:57;;;;;;;;;;;;;;;23.69;66.59;97230.45;571623;248;66220;-70
2022/04/04 03:21:27;;;;;;;;;;;;;;;23.69;66.99;97232.34;571551;248;63426;-70
2022/04/04 03:23:54;;;;;;;;;;;;;;;23.68;67.27;97236.91;571543;248;68702;-70
2022/04/04 03:26:23;;;;;;;;;;;;;;;23.66;65.86;97233.70;571551;248;66943;-70
2022/04/04 03:28:50;;;;;;;;;;;;;;;23.66;64.96;97244.44;571536;248;65473;-70
2022/04/04 03:31:18;;;;;;;;;;;;;;;23.67;67.87;97246.02;571570;248;66547;-70
2022/04/04 03:33:45;;;;;;;;;;;;;;;23.64;67.84;97243.91;571535;248;66465;-70
2022/04/04 03:36:13;;;;;;;;;;;;;;;23.63;68.17;97242.32;571595;248;63037;-70
2022/04/04 03:38:41;;;;;;;;;;;;;;;23.64;65.98;97235.06;571563;248;66509;-70
2022/04/04 03:41:09;;;;;;;;;;;;;;;23.64;66.85;97235.86;571565;248;68728;-70
2022/04/04 03:43:37;;;;;;;;;;;;;;;23.61;67.31;97236.43;571576;248;63019;-70
2022/04/04 03:46:04;;;;;;;;;;;;;;;23.62;66.66;97231.86;571561;248;66061;-70
2022/04/04 03:48:32;;;;;;;;;;;;;;;23.61;67.87;97241.80;571519;246;66482;-70
2022/04/04 03:50:59;;;;;;;;;;;;;;;23.60;66.87;97237.52;571537;246;63085;-70
2022/04/04 03:53:27;;;;;;;;;;;;;;;23.58;66.66;97237.00;571520;248;66871;-74
2022/04/04 03:55:54;;;;;;;;;;;;;;;23.60;67.46;97239.38;571533;248;68621;-74
2022/04/04 03:58:22;;;;;;;;;;;;;;;23.59;66.55;97245.84;571569;248;65189;-74
2022/04/04 04:00:50;;;;;;;;;;;;;;;23.58;67.90;97253.09;571494;248;66546;-74
2022/04/04 04:03:17;;;;;;;;;;;;;;;23.57;67.39;97256.87;571556;248;66476;-73
2022/04/04 04:05:45;;;;;;;;;;;;;;;23.57;67.51;97262.23;571516;246;63037;-74
2022/04/04 04:08:12;;;;;;;;;;;;;;;23.57;67.27;97264.92;571660;248;68466;-70
2022/04/04 04:10:40;;;;;;;;;;;;;;;23.58;66.42;97265.72;571568;248;68588;-70
2022/04/04 04:13:07;;;;;;;;;;;;;;;23.57;67.81;97266.78;571586;248;65392;-73
2022/04/04 04:15:35;;;;;;;;;;;;;;;23.55;66.74;97261.71;571538;246;68702;-73
2022/04/04 04:18:02;;;;;;;;;;;;;;;23.53;67.04;97269.23;571563;248;66458;-73
2022/04/04 04:20:32;;;;;;;;;;;;;;;23.55;67.74;97266.28;571554;246;63053;-70
2022/04/04 04:23:00;;;;;;;;;;;;;;;23.53;67.52;97266.55;571632;248;67535;-70
2022/04/04 04:25:29;;;;;;;;;;;;;;;23.53;68.46;97274.59;571566;248;69015;-70
2022/04/04 04:27:59;;;;;;;;;;;;;;;23.54;67.77;97288.80;571569;248;63102;-70
2022/04/04 04:30:28;;;;;;;;;;;;;;;23.51;66.65;97290.16;571416;248;69270;-68
2022/04/04 04:32:55;;;;;;;;;;;;;;;23.53;68.22;97304.10;571563;248;68484;-68
2022/04/04 04:35:23;;;;;;;;;;;;;;;23.52;67.39;97299.83;571626;248;65442;-68
2022/04/04 04:37:51;;;;;;;;;;;;;;;23.51;67.39;97306.26;571574;248;66536;-68
2022/04/04 04:40:19;;;;;;;;;;;;;;;23.48;67.42;97302.25;571536;248;68938;-68
2022/04/04 04:42:47;;;;;;;;;;;;;;;23.49;68.16;97303.87;571565;248;65660;-68
2022/04/04 04:45:15;;;;;;;;;;;;;;;23.50;67.75;97307.34;571573;248;68663;-72
2022/04/04 04:47:43;;;;;;;;;;;;;;;23.48;67.52;97306.82;571586;248;68558;-72
2022/04/04 04:50:10;;;;;;;;;;;;;;;23.47;67.50;97319.44;571560;248;65553;-72
2022/04/04 04:52:38;;;;;;;;;;;;;;;23.48;67.34;97312.19;571581;248;68913;-72
2022/04/04 04:55:06;;;;;;;;;;;;;;;23.47;67.25;97318.64;571431;248;68522;-68
2022/04/04 04:57:34;;;;;;;;;;;;;;;23.46;67.53;97314.34;571585;248;65353;-68
2022/04/04 05:00:05;;;;;;;;;;;;;;;23.44;67.72;97319.20;571542;248;68418;-68
2022/04/04 05:02:34;;;;;;;;;;;;;;;23.45;68.10;97320.80;571623;248;68897;-69
2022/04/04 05:05:01;;;;;;;;;;;;;;;23.43;67.73;97323.74;571503;248;66314;-69
2022/04/04 05:07:29;;;;;;;;;;;;;;;23.46;66.66;97330.44;571560;248;68944;-69
2022/04/04 05:09:56;;;;;;;;;;;;;;;23.45;67.37;97335.00;571560;248;68567;-69
2022/04/04 05:12:24;;;;;;;;;;;;;;;23.44;67.88;97338.77;571538;248;65411;-69
2022/04/04 05:14:52;;;;;;;;;;;;;;;23.44;67.60;97336.09;571586;248;68825;-69
2022/04/04 05:17:19;;;;;;;;;;;;;;;23.41;67.14;97343.91;571570;248;68603;-69
2022/04/04 05:19:47;;;;;;;;;;;;;;;23.42;67.07;97335.56;571550;246;65440;-69
2022/04/04 05:22:14;;;;;;;;;;;;;;;23.42;67.43;97337.45;571506;246;68697;-69
2022/04/04 05:24:41;;;;;;;;;;;;;;;23.40;67.74;97340.39;571561;248;68561;-69
2022/04/04 05:27:09;;;;;;;;;;;;;;;23.39;67.76;97341.48;571601;248;63003;-69
2022/04/04 05:29:37;;;;;;;;;;;;;;;23.40;68.13;97344.97;571559;248;68731;-69
2022/04/04 05:32:05;;;;;;;;;;;;;;;23.41;67.94;97346.59;571542;248;68620;-69
2022/04/04 05:34:32;;;;;;;;;;;;;;;23.41;67.06;97343.91;571515;248;65486;-69
2022/04/04 05:37:00;;;;;;;;;;;;;;;23.41;68.34;97349.27;571409;248;69535;-69
2022/04/04 05:39:28;;;;;;;;;;;;;;;23.40;68.28;97358.38;571596;248;68572;-69
2022/04/04 05:41:56;;;;;;;;;;;;;;;23.38;67.98;97357.84;571582;248;65410;-69
2022/04/04 05:44:24;;;;;;;;;;;;;;;23.38;67.42;97357.84;571604;248;68748;-69
2022/04/04 05:46:52;;;;;;;;;;;;;;;23.37;67.65;97364.30;571565;248;66004;-69
2022/04/04 05:49:19;;;;;;;;;;;;;;;23.37;68.30;97365.09;571533;246;63056;-69
2022/04/04 05:51:47;;;;;;;;;;;;;;;23.34;68.49;97362.97;571557;248;66286;-69
2022/04/04 05:54:15;;;;;;;;;;;;;;;23.35;67.81;97366.45;571602;248;66568;-69
2022/04/04 05:56:48;;;;;;;;;;;;;;;23.34;68.03;97362.17;571481;248;65262;-70
2022/04/04 05:59:13;;;;;;;;;;;;;;;23.33;67.94;97366.74;571292;248;66290;-69
2022/04/04 06:01:41;;;;;;;;;;;;;;;23.33;67.90;97380.16;571157;248;68333;-73
2022/04/04 06:04:09;;;;;;;;;;;;;;;23.33;66.94;97368.62;571036;248;65486;-74
2022/04/04 06:06:37;;;;;;;;;;;;;;;23.31;66.88;97368.89;577318;241;68588;-75
2022/04/04 06:09:04;;;;;;;;;;;;;;;23.29;68.47;97370.25;578060;245;68732;-74
2022/04/04 06:11:32;;;;;;;;;;;;;;;23.29;69.00;97372.92;578897;245;63056;-75
2022/04/04 06:13:59;;;;;;;;;;;;;;;23.28;67.79;97372.13;578793;245;66255;-75
2022/04/04 06:16:28;;;;;;;;;;;;;;;23.29;66.48;97370.25;579042;242;68770;-72
2022/04/04 06:18:56;;;;;;;;;;;;;;;23.28;67.13;97380.17;579120;245;65462;-72
2022/04/04 06:21:23;;;;;;;;;;;;;;;23.29;67.79;97372.92;578719;245;68895;-69
2022/04/04 06:23:52;;;;;;;;;;;;;;;23.31;67.48;97379.63;578302;245;68704;-71
2022/04/04 06:26:20;;;;;;;;;;;;;;;23.29;66.86;97372.92;578216;245;65404;-71
2022/04/04 06:28:47;;;;;;;;;;;;;;;23.29;66.27;97380.97;578254;245;68660;-69
2022/04/04 06:31:15;;;;;;;;;;;;;;;23.29;65.56;97383.66;578275;245;68645;-68
2022/04/04 06:33:43;;;;;;;;;;;;;;;23.29;66.61;97389.81;578205;245;65602;-73
2022/04/04 06:36:10;;;;;;;;;;;;;;;23.30;66.19;97386.08;578343;245;68636;-73
2022/04/04 06:38:39;;;;;;;;;;;;;;;23.31;66.04;97389.55;578244;245;68561;-71
2022/04/04 06:41:06;;;;;;;;;;;;;;;23.30;66.27;97396.80;578026;245;63051;-71
2022/04/04 06:43:34;;;;;;;;;;;;;;;23.29;66.88;97403.22;578102;245;66462;-71
2022/04/04 06:46:02;;;;;;;;;;;;;;;23.32;63.99;97401.87;578282;245;68647;-69
2022/04/04 06:48:30;;;;;;;;;;;;;;;23.33;65.38;97412.33;576257;245;65123;-71
2022/04/04 06:50:59;;;;;;;;;;;;;;;23.30;65.44;97412.06;565449;251;66588;-70
2022/04/04 06:53:26;;;;;;;;;;;;;;;23.28;65.05;97408.87;565403;247;68558;-67
2022/04/04 06:55:54;;;;;;;;;;;;;;;23.28;65.05;97408.87;565454;251;62962;-68
2022/04/04 06:58:21;;;;;;;;;;;;;;;23.26;64.08;97407.26;565522;251;68676;-66
2022/04/04 07:00:49;;;;;;;;;;;;;;;23.25;65.79;97405.66;565467;246;66538;-69
2022/04/04 07:03:17;;;;;;;;;;;;;;;23.24;65.91;97401.39;565446;251;65060;-68
2022/04/04 07:05:45;;;;;;;;;;;;;;;23.25;65.04;97400.30;565497;251;68882;-66
2022/04/04 07:08:12;;;;;;;;;;;;;;;23.25;64.38;97391.46;565389;251;67009;-66
2022/04/04 07:10:40;;;;;;;;;;;;;;;23.25;62.94;97394.94;565460;251;63185;-68
2022/04/04 07:13:07;;;;;;;;;;;;;;;23.25;58.50;97389.58;565483;251;67598;-67
2022/04/04 07:15:35;;;;;;;;;;;;;;;23.25;62.69;97392.25;565402;251;68587;-66
2022/04/04 07:18:03;;;;;;;;;;;;;;;23.25;62.77;97389.58;568122;245;63061;-66
2022/04/04 07:20:31;;;;;;;;;;;;;;;23.28;63.36;97387.42;570641;240;69255;-65
2022/04/04 07:22:59;;;;;;;;;;;;;;;23.26;64.68;97390.38;575335;246;69566;-68
2022/04/04 07:25:28;;;;;;;;;;;;;;;23.25;63.92;97389.58;575493;246;63231;-68
2022/04/04 07:27:55;;;;;;;;;;;;;;;23.28;63.86;97387.42;575450;246;68287;-68
2022/04/04 07:30:23;;;;;;;;;;;;;;;23.26;63.61;97390.38;575269;246;68751;-67
2022/04/04 07:32:51;;;;;;;;;;;;;;;23.25;64.20;97392.25;575344;246;65468;-69
2022/04/04 07:35:19;;;;;;;;;;;;;;;23.26;64.22;97396.53;575387;246;66582;-66
2022/04/04 07:37:48;;;;;;;;;;;;;;;23.25;65.26;97389.58;575377;246;70115;-69
2022/04/04 07:40:17;;;;;;;;;;;;;;;23.28;64.19;97403.52;575495;246;63908;-69
2022/04/04 07:42:45;;;;;;;;;;;;;;;23.29;65.06;97399.75;575442;246;66775;-71
2022/04/04 07:45:14;;;;;;;;;;;;;;;23.29;65.62;97400.54;575325;246;68603;-66
2022/04/04 07:47:41;;;;;;;;;;;;;;;23.30;64.15;97404.02;575478;246;65492;-68
2022/04/04 07:50:11;;;;;;;;;;;;;;;23.28;63.47;97404.31;575464;246;66658;-65
2022/04/04 07:52:40;;;;;;;;;;;;;;;23.30;64.99;97406.70;575403;246;66707;-70
2022/04/04 07:55:09;;;;;;;;;;;;;;;23.29;65.23;97400.54;575457;246;66293;-65
2022/04/04 07:57:37;;;;;;;;;;;;;;;23.30;65.85;97391.44;575341;246;66750;-70
2022/04/04 08:00:05;;;;;;;;;;;;;;;23.29;65.58;97392.50;575406;246;66398;-69
2022/04/04 08:02:34;;;;;;;;;;;;;;;23.31;66.15;97401.07;575529;244;46910;-67
2022/04/04 08:05:01;;;;;;;;;;;;;;;23.31;65.29;97402.95;575381;246;68715;-69
2022/04/04 08:07:29;;;;;;;;;;;;;;;23.33;65.64;97398.12;575432;246;68976;-69
2022/04/04 08:09:56;;;;;;;;;;;;;;;23.31;66.55;97393.03;575460;246;63256;-69
2022/04/04 08:12:27;;;;;;;;;;;;;;;23.34;66.20;97391.67;575435;246;68711;-69
2022/04/04 08:14:56;;;;;;;;;;;;;;;23.34;65.84;97389.79;575491;246;66341;-69
2022/04/04 08:17:24;;;;;;;;;;;;;;;23.35;66.07;97382.54;575506;246;65628;-70
2022/04/04 08:19:52;;;;;;;;;;;;;;;23.36;66.00;97379.59;575429;246;66763;-71
2022/04/04 08:22:20;;;;;;;;;;;;;;;23.37;66.20;97375.03;584523;242;66786;-71
2022/04/04 08:24:48;;;;;;;;;;;;;;;23.37;66.62;97372.34;586028;242;65432;-73
2022/04/04 08:27:16;;;;;;;;;;;;;;;23.39;66.19;97375.56;585893;242;66568;-70
2022/04/04 08:29:43;;;;;;;;;;;;;;;23.39;66.34;97373.67;586055;242;66628;-70
2022/04/04 08:32:12;;;;;;;;;;;;;;;23.39;66.06;97365.63;586100;242;45354;-69
2022/04/04 08:34:40;;;;;;;;;;;;;;;23.40;66.66;97366.42;585965;242;66468;-69
2022/04/04 08:37:08;;;;;;;;;;;;;;;23.41;66.61;97366.16;586069;242;66500;-69
2022/04/04 08:39:35;;;;;;;;;;;;;;;23.41;66.55;97366.16;586091;242;65507;-69
2022/04/04 08:42:03;;;;;;;;;;;;;;;23.41;66.92;97363.48;586015;242;68702;-75
2022/04/04 08:44:32;;;;;;;;;;;;;;;23.43;66.57;97357.81;586009;242;68805;-68
2022/04/04 08:47:00;;;;;;;;;;;;;;;23.43;66.81;97355.93;586042;242;65145;-68
2022/04/04 08:49:27;;;;;;;;;;;;;;;23.44;66.99;97349.50;586043;242;69124;-68
2022/04/04 08:51:55;;;;;;;;;;;;;;;23.45;66.76;97347.62;586061;242;68783;-67
2022/04/04 08:54:23;;;;;;;;;;;;;;;23.45;66.42;97344.94;586109;242;65583;-64
2022/04/04 08:56:50;;;;;;;;;;;;;;;23.44;66.21;97346.03;586047;242;69755;-67
2022/04/04 08:59:18;;;;;;;;;;;;;;;23.45;66.73;97335.00;586111;242;66452;-70
2022/04/04 09:01:45;;;;;;;;;;;;;;;23.47;66.69;97332.05;586070;242;63022;-71
2022/04/04 09:04:14;;;;;;;;;;;;;;;23.46;66.02;97327.75;586069;242;66631;-71
2022/04/04 09:06:51;;;;;;;;;;;;;;;23.48;66.70;97325.59;586084;242;68784;-69
2022/04/04 09:09:20;;;;;;;;;;;;;;;23.49;66.15;97324.53;585994;242;65225;-69
2022/04/04 09:11:49;;;;;;;;;;;;;;;23.50;66.87;97323.44;586057;242;66691;-69
2022/04/04 09:14:18;;;;;;;;;;;;;;;23.52;66.18;97318.61;586083;242;66364;-68
2022/04/04 09:16:47;;;;;;;;;;;;;;;23.53;65.75;97309.47;585953;242;63992;-66
2022/04/04 09:19:16;;;;;;;;;;;;;;;23.55;66.35;97310.00;585818;242;68858;-67
2022/04/04 09:21:45;;;;;;;;;;;;;;;23.56;65.64;97300.06;585532;242;68659;-70
2022/04/04 09:24:12;;;;;;;;;;;;;;;23.57;66.22;97299.80;585881;242;65543;-69
2022/04/04 09:26:41;;;;;;;;;;;;;;;23.58;65.38;97298.70;585925;242;68725;-71
2022/04/04 09:29:19;;;;;;;;;;;;;;;23.59;65.42;97302.97;586064;242;68310;-71
2022/04/04 09:32:05;;;;;;;;;;;;;;;23.61;65.25;97286.61;586007;242;65577;-71
2022/04/04 09:34:29;;;;;;;;;;;;;;;23.62;65.15;97288.20;585812;242;68905;-71
2022/04/04 09:36:59;;;;;;;;;;;;;;;23.61;65.15;97284.72;586069;242;53973;-71
2022/04/04 09:39:27;;;;;;;;;;;;;;;23.62;65.06;97272.90;586104;242;65413;-73
2022/04/04 09:41:56;;;;;;;;;;;;;;;23.64;64.81;97273.42;586096;242;66520;-77
2022/04/04 09:44:26;;;;;;;;;;;;;;;23.65;64.80;97264.31;585988;242;68487;-68
2022/04/04 09:46:54;;;;;;;;;;;;;;;23.67;65.47;97267.49;586025;242;62977;-68
2022/04/04 09:49:21;;;;;;;;;;;;;;;23.67;65.09;97256.76;586110;242;68719;-68
2022/04/04 09:51:50;;;;;;;;;;;;;;;23.66;64.42;97246.33;586077;242;66063;-70
2022/04/04 09:54:19;;;;;;;;;;;;;;;23.66;64.78;97239.07;586030;242;65712;-68
2022/04/04 09:56:50;;;;;;;;;;;;;;;23.67;64.51;97246.02;586063;242;66176;-68
2022/04/04 09:59:18;;;;;;;;;;;;;;;23.68;63.95;97236.09;585935;242;68423;-68
2022/04/04 10:01:47;;;;;;;;;;;;;;;23.69;64.69;97243.87;586059;242;65695;-66
2022/04/04 10:04:15;;;;;;;;;;;;;;;23.68;64.00;97231.55;586078;242;65432;-66
2022/04/04 10:06:47;;;;;;;;;;;;;;;23.68;63.86;97228.86;585706;242;68683;-66
2022/04/04 10:09:14;;;;;;;;;;;;;;;23.69;63.73;97226.97;585555;242;66315;-67
2022/04/04 10:11:43;;;;;;;;;;;;;;;23.70;62.81;97218.63;586055;242;68551;-69
2022/04/04 10:14:10;;;;;;;;;;;;;;;23.74;62.48;97220.80;586093;242;68356;-72
2022/04/04 10:16:39;;;;;;;;;;;;;;;23.76;62.95;97215.92;586018;242;65149;-73
2022/04/04 10:19:06;;;;;;;;;;;;;;;23.77;63.68;97214.86;586124;242;66553;-73
2022/04/04 10:21:34;;;;;;;;;;;;;;;23.78;63.22;97211.87;580213;242;66700;-72
2022/04/04 10:24:02;;;;;;;;;;;;;;;23.80;62.00;97214.29;575469;246;65368;-74
2022/04/04 10:26:32;;;;;;;;;;;;;;;23.81;61.79;97208.62;575448;246;68730;-67
2022/04/04 10:29:12;;;;;;;;;;;;;;;23.83;62.08;97201.09;575415;246;69515;-67
2022/04/04 10:31:43;;;;;;;;;;;;;;;23.81;62.45;97195.20;575488;246;63384;-67
2022/04/04 10:34:12;;;;;;;;;;;;;;;23.79;61.02;97200.08;575458;246;66877;-67
2022/04/04 10:36:41;;;;;;;;;;;;;;;23.78;61.37;97185.04;575442;246;68793;-67
2022/04/04 10:39:10;;;;;;;;;;;;;;;23.77;60.90;97186.14;575195;245;63275;-67
2022/04/04 10:41:39;;;;;;;;;;;;;;;23.78;61.02;97168.14;575513;246;68788;-67
2022/04/04 10:44:08;;;;;;;;;;;;;;;23.77;60.79;97170.03;575511;246;68406;-67
2022/04/04 10:46:36;;;;;;;;;;;;;;;23.79;61.09;97162.51;575487;246;65381;-67
2022/04/04 10:49:06;;;;;;;;;;;;;;;23.80;60.58;97168.67;575453;246;68782;-67
2022/04/04 10:51:36;;;;;;;;;;;;;;;23.79;60.30;97157.14;575439;246;68942;-67
2022/04/04 10:54:05;;;;;;;;;;;;;;;23.80;59.78;97166.78;575494;246;65336;-68
2022/04/04 10:56:34;;;;;;;;;;;;;;;23.80;60.32;97160.62;575505;246;68837;-68
2022/04/04 10:59:19;;;;;;;;;;;;;;;23.81;60.35;97156.84;575438;246;68687;-69
2022/04/04 11:01:51;;;;;;;;;;;;;;;23.82;60.19;97151.20;575473;246;65126;-69
2022/04/04 11:04:28;;;;;;;;;;;;;;;23.85;60.00;97155.20;575394;242;68807;-73
2022/04/04 11:09:53;;;;;;;;;;;;;;;23.86;60.59;97143.36;575434;246;63301;-72
2022/04/04 11:12:23;;;;;;;;;;;;;;;23.87;60.79;97140.41;575451;246;68582;-71
2022/04/04 11:14:57;;;;;;;;;;;;;;;23.86;60.08;97130.73;575471;246;69123;-75
2022/04/04 11:17:38;;;;;;;;;;;;;;;23.88;60.58;97130.47;575395;246;65505;-75
2022/04/04 11:20:12;;;;;;;;;;;;;;;23.90;61.24;97130.98;575424;246;68927;-74
2022/04/04 11:22:45;;;;;;;;;;;;;;;23.89;60.47;97124.00;575372;246;72201;-75
2022/04/04 11:25:14;;;;;;;;;;;;;;;23.89;61.10;97118.63;575482;243;43619;-73
2022/04/04 11:27:41;;;;;;;;;;;;;;;23.89;60.47;97130.16;575416;245;68663;-70
2022/04/04 11:30:11;;;;;;;;;;;;;;;23.89;61.51;97114.05;575512;246;68426;-69
2022/04/04 11:32:40;;;;;;;;;;;;;;;23.88;61.63;97115.16;575318;245;65505;-69
2022/04/04 11:35:09;;;;;;;;;;;;;;;23.87;61.84;97100.15;575470;246;66563;-71
2022/04/04 11:37:43;;;;;;;;;;;;;;;23.87;61.65;97100.15;575398;246;68571;-77
2022/04/04 11:40:14;;;;;;;;;;;;;;;23.87;61.57;97099.33;575422;246;63291;-74
2022/04/04 11:42:42;;;;;;;;;;;;;;;23.86;61.45;97101.22;575093;246;66606;-75
2022/04/04 11:45:10;;;;;;;;;;;;;;;23.87;61.65;97091.27;575502;246;68684;-74
2022/04/04 11:47:41;;;;;;;;;;;;;;;23.87;61.29;97102.01;575398;246;65781;-75
2022/04/04 11:50:08;;;;;;;;;;;;;;;23.86;61.62;97093.16;575285;246;68664;-77
2022/04/04 11:52:49;;;;;;;;;;;;;;;23.86;61.93;97093.16;575253;246;68539;-76
2022/04/04 11:55:18;;;;;;;;;;;;;;;23.86;61.80;97092.38;575466;246;63153;-76
2022/04/04 11:57:47;;;;;;;;;;;;;;;23.86;62.27;97092.38;575511;246;68686;-76
2022/04/04 12:00:16;;;;;;;;;;;;;;;23.85;61.68;97080.05;575441;246;67198;-76
2022/04/04 12:02:43;;;;;;;;;;;;;;;23.86;61.35;97078.95;575456;246;65430;-75
2022/04/04 12:05:12;;;;;;;;;;;;;;;23.86;61.42;97073.59;575424;246;68817;-78
2022/04/04 12:07:40;;;;;;;;;;;;;;;23.85;61.58;97064.74;575365;246;69052;-76
2022/04/04 12:10:09;;;;;;;;;;;;;;;23.86;61.29;97062.84;575493;246;65487;-74
2022/04/04 12:12:37;;;;;;;;;;;;;;;23.86;61.67;97058.27;575396;246;66684;-74
2022/04/04 12:15:05;;;;;;;;;;;;;;;23.85;61.80;97051.33;575403;246;68678;-65
2022/04/04 12:17:33;;;;;;;;;;;;;;;23.87;59.80;97046.47;575474;246;65380;-69
2022/04/04 12:20:00;;;;;;;;;;;;;;;23.85;61.89;97051.33;575502;246;66586;-69
2022/04/04 12:25:03;;;;;;;;;;;;;;;23.85;61.34;97043.27;572381;242;64104;-69
2022/04/04 12:27:31;;;;;;;;;;;;;;;23.84;60.85;97038.18;586029;242;69415;-66
2022/04/04 12:30:00;;;;;;;;;;;;;;;23.83;60.94;97036.59;585953;242;68788;-66
2022/04/04 12:32:29;;;;;;;;;;;;;;;23.84;61.08;97024.76;586084;242;65232;-68
2022/04/04 12:34:57;;;;;;;;;;;;;;;23.83;60.82;97023.97;585878;242;69095;-67
2022/04/04 12:37:38;;;;;;;;;;;;;;;23.83;60.65;97017.81;586015;242;66703;-68
2022/04/04 12:40:16;;;;;;;;;;;;;;;23.84;59.98;97019.39;586132;242;65406;-69
2022/04/04 12:42:45;;;;;;;;;;;;;;;23.87;59.59;97010.77;585998;242;68714;-69
2022/04/04 12:45:12;;;;;;;;;;;;;;;23.89;59.61;97000.54;586029;242;68048;-69
2022/04/04 12:47:58;;;;;;;;;;;;;;;23.93;57.61;97001.58;586034;242;63168;-68
2022/04/04 12:50:27;;;;;;;;;;;;;;;23.93;59.70;97007.73;586066;242;66830;-69
2022/04/04 12:53:02;;;;;;;;;;;;;;;23.94;59.50;96997.78;585675;242;68604;-70
2022/04/04 12:55:29;;;;;;;;;;;;;;;23.95;59.19;96999.38;586171;242;63996;-69
2022/04/04 12:57:58;;;;;;;;;;;;;;;23.96;59.25;96994.83;586092;242;68887;-69
2022/04/04 13:00:27;;;;;;;;;;;;;;;23.98;59.70;96995.31;585265;242;68577;-70